sensor_id;sensor_type;location;lat;lon;timestamp;P1;durP1;ratioP1;P2;durP2;ratioP2
68192;SDS011;55012;47.562;18.414;2023-05-29T00:01:24;21.45;;;10.23;;
68192;SDS011;55012;47.562;18.414;2023-05-29T00:03:50;18.08;;;8.68;;
68192;SDS011;55012;47.562;18.414;2023-05-29T00:06:16;17.10;;;8.40;;
68192;SDS011;55012;47.562;18.414;2023-05-29T00:08:41;17.48;;;8.60;;
68192;SDS011;55012;47.562;18.414;2023-05-29T00:11:07;18.50;;;9.07;;
68192;SDS011;55012;47.562;18.414;2023-05-29T00:13:33;25.27;;;12.70;;
68192;SDS011;55012;47.562;18.414;2023-05-29T00:15:58;26.90;;;14.05;;
68192;SDS011;55012;47.562;18.414;2023-05-29T00:18:25;21.20;;;11.95;;
68192;SDS011;55012;47.562;18.414;2023-05-29T00:20:51;22.75;;;11.07;;
68192;SDS011;55012;47.562;18.414;2023-05-29T00:23:17;19.80;;;10.40;;
68192;SDS011;55012;47.562;18.414;2023-05-29T00:25:43;21.75;;;11.90;;
68192;SDS011;55012;47.562;18.414;2023-05-29T00:28:09;14.90;;;8.18;;
68192;SDS011;55012;47.562;18.414;2023-05-29T00:30:35;15.80;;;8.70;;
68192;SDS011;55012;47.562;18.414;2023-05-29T00:33:00;18.67;;;8.57;;
68192;SDS011;55012;47.562;18.414;2023-05-29T00:35:26;17.10;;;8.05;;
68192;SDS011;55012;47.562;18.414;2023-05-29T00:37:51;15.38;;;8.23;;
68192;SDS011;55012;47.562;18.414;2023-05-29T00:40:17;17.05;;;8.88;;
68192;SDS011;55012;47.562;18.414;2023-05-29T00:42:42;14.73;;;8.05;;
68192;SDS011;55012;47.562;18.414;2023-05-29T00:45:10;17.08;;;8.73;;
68192;SDS011;55012;47.562;18.414;2023-05-29T00:47:38;18.60;;;9.57;;
68192;SDS011;55012;47.562;18.414;2023-05-29T00:50:04;21.80;;;9.38;;
68192;SDS011;55012;47.562;18.414;2023-05-29T00:52:31;21.95;;;10.85;;
68192;SDS011;55012;47.562;18.414;2023-05-29T00:54:57;22.17;;;10.60;;
68192;SDS011;55012;47.562;18.414;2023-05-29T00:57:26;22.48;;;12.52;;
68192;SDS011;55012;47.562;18.414;2023-05-29T00:59:51;23.58;;;11.15;;
68192;SDS011;55012;47.562;18.414;2023-05-29T01:02:17;21.38;;;11.15;;
68192;SDS011;55012;47.562;18.414;2023-05-29T01:04:45;17.38;;;8.82;;
68192;SDS011;55012;47.562;18.414;2023-05-29T01:07:11;14.75;;;7.32;;
68192;SDS011;55012;47.562;18.414;2023-05-29T01:09:37;16.92;;;7.97;;
68192;SDS011;55012;47.562;18.414;2023-05-29T01:20:23;16.65;;;8.20;;
68192;SDS011;55012;47.562;18.414;2023-05-29T01:28:51;19.77;;;8.38;;
68192;SDS011;55012;47.562;18.414;2023-05-29T01:31:18;15.00;;;7.53;;
68192;SDS011;55012;47.562;18.414;2023-05-29T01:33:55;15.88;;;8.52;;
68192;SDS011;55012;47.562;18.414;2023-05-29T01:36:22;15.60;;;8.73;;
68192;SDS011;55012;47.562;18.414;2023-05-29T01:38:48;18.55;;;8.98;;
68192;SDS011;55012;47.562;18.414;2023-05-29T01:41:15;15.20;;;8.38;;
68192;SDS011;55012;47.562;18.414;2023-05-29T01:43:45;17.17;;;7.85;;
68192;SDS011;55012;47.562;18.414;2023-05-29T01:46:12;21.08;;;9.70;;
68192;SDS011;55012;47.562;18.414;2023-05-29T01:48:39;17.98;;;8.10;;
68192;SDS011;55012;47.562;18.414;2023-05-29T01:51:06;15.60;;;8.15;;
68192;SDS011;55012;47.562;18.414;2023-05-29T01:53:32;18.95;;;8.55;;
68192;SDS011;55012;47.562;18.414;2023-05-29T01:55:57;24.23;;;11.18;;
68192;SDS011;55012;47.562;18.414;2023-05-29T01:58:23;19.95;;;9.48;;
68192;SDS011;55012;47.562;18.414;2023-05-29T02:00:50;15.95;;;8.85;;
68192;SDS011;55012;47.562;18.414;2023-05-29T02:03:15;21.13;;;9.25;;
68192;SDS011;55012;47.562;18.414;2023-05-29T02:05:41;19.88;;;9.63;;
68192;SDS011;55012;47.562;18.414;2023-05-29T02:08:06;17.25;;;8.95;;
68192;SDS011;55012;47.562;18.414;2023-05-29T02:10:32;17.75;;;8.75;;
68192;SDS011;55012;47.562;18.414;2023-05-29T02:12:57;18.00;;;9.20;;
68192;SDS011;55012;47.562;18.414;2023-05-29T02:15:23;19.77;;;9.77;;
68192;SDS011;55012;47.562;18.414;2023-05-29T02:17:48;22.45;;;9.65;;
68192;SDS011;55012;47.562;18.414;2023-05-29T02:20:15;20.38;;;10.00;;
68192;SDS011;55012;47.562;18.414;2023-05-29T02:22:40;22.25;;;10.05;;
68192;SDS011;55012;47.562;18.414;2023-05-29T02:25:06;19.65;;;8.93;;
68192;SDS011;55012;47.562;18.414;2023-05-29T02:27:32;19.83;;;8.27;;
68192;SDS011;55012;47.562;18.414;2023-05-29T02:29:58;15.75;;;7.85;;
68192;SDS011;55012;47.562;18.414;2023-05-29T02:32:23;18.83;;;7.97;;
68192;SDS011;55012;47.562;18.414;2023-05-29T02:34:51;16.50;;;8.38;;
68192;SDS011;55012;47.562;18.414;2023-05-29T02:37:17;17.48;;;8.35;;
68192;SDS011;55012;47.562;18.414;2023-05-29T02:39:43;16.50;;;7.57;;
68192;SDS011;55012;47.562;18.414;2023-05-29T02:42:08;18.05;;;7.72;;
68192;SDS011;55012;47.562;18.414;2023-05-29T02:44:34;17.92;;;8.35;;
68192;SDS011;55012;47.562;18.414;2023-05-29T02:46:59;15.90;;;7.68;;
68192;SDS011;55012;47.562;18.414;2023-05-29T02:49:25;18.02;;;8.50;;
68192;SDS011;55012;47.562;18.414;2023-05-29T02:51:51;16.67;;;8.35;;
68192;SDS011;55012;47.562;18.414;2023-05-29T02:54:21;18.23;;;8.07;;
68192;SDS011;55012;47.562;18.414;2023-05-29T02:56:47;15.65;;;7.60;;
68192;SDS011;55012;47.562;18.414;2023-05-29T02:59:12;18.35;;;8.13;;
68192;SDS011;55012;47.562;18.414;2023-05-29T03:01:38;19.45;;;8.75;;
68192;SDS011;55012;47.562;18.414;2023-05-29T03:04:03;17.17;;;8.73;;
68192;SDS011;55012;47.562;18.414;2023-05-29T03:06:28;16.98;;;8.15;;
68192;SDS011;55012;47.562;18.414;2023-05-29T03:08:54;20.75;;;8.48;;
68192;SDS011;55012;47.562;18.414;2023-05-29T03:11:19;24.13;;;9.52;;
68192;SDS011;55012;47.562;18.414;2023-05-29T03:13:48;21.15;;;9.55;;
68192;SDS011;55012;47.562;18.414;2023-05-29T03:16:14;24.77;;;10.15;;
68192;SDS011;55012;47.562;18.414;2023-05-29T03:18:39;18.85;;;8.90;;
68192;SDS011;55012;47.562;18.414;2023-05-29T03:21:06;18.27;;;8.35;;
68192;SDS011;55012;47.562;18.414;2023-05-29T03:23:32;18.83;;;8.60;;
68192;SDS011;55012;47.562;18.414;2023-05-29T03:25:58;14.20;;;6.97;;
68192;SDS011;55012;47.562;18.414;2023-05-29T03:28:23;15.75;;;7.90;;
68192;SDS011;55012;47.562;18.414;2023-05-29T03:30:49;16.50;;;9.00;;
68192;SDS011;55012;47.562;18.414;2023-05-29T03:33:15;18.13;;;8.80;;
68192;SDS011;55012;47.562;18.414;2023-05-29T03:35:40;15.07;;;8.23;;
68192;SDS011;55012;47.562;18.414;2023-05-29T03:38:05;15.35;;;7.90;;
68192;SDS011;55012;47.562;18.414;2023-05-29T03:40:32;15.75;;;8.52;;
68192;SDS011;55012;47.562;18.414;2023-05-29T03:42:58;15.02;;;7.90;;
68192;SDS011;55012;47.562;18.414;2023-05-29T03:45:23;12.90;;;7.88;;
68192;SDS011;55012;47.562;18.414;2023-05-29T03:47:48;15.15;;;7.85;;
68192;SDS011;55012;47.562;18.414;2023-05-29T03:50:14;12.85;;;6.57;;
68192;SDS011;55012;47.562;18.414;2023-05-29T03:52:41;14.70;;;7.25;;
68192;SDS011;55012;47.562;18.414;2023-05-29T03:55:10;13.63;;;6.82;;
68192;SDS011;55012;47.562;18.414;2023-05-29T03:57:38;20.10;;;7.80;;
68192;SDS011;55012;47.562;18.414;2023-05-29T04:00:06;13.95;;;6.82;;
68192;SDS011;55012;47.562;18.414;2023-05-29T04:02:36;13.55;;;6.97;;
68192;SDS011;55012;47.562;18.414;2023-05-29T04:05:03;15.77;;;7.13;;
68192;SDS011;55012;47.562;18.414;2023-05-29T04:07:36;13.60;;;7.43;;
68192;SDS011;55012;47.562;18.414;2023-05-29T04:10:04;14.38;;;7.78;;
68192;SDS011;55012;47.562;18.414;2023-05-29T04:12:31;16.50;;;8.23;;
68192;SDS011;55012;47.562;18.414;2023-05-29T04:14:57;16.00;;;8.07;;
68192;SDS011;55012;47.562;18.414;2023-05-29T04:17:23;13.70;;;7.25;;
68192;SDS011;55012;47.562;18.414;2023-05-29T04:19:49;20.30;;;8.63;;
68192;SDS011;55012;47.562;18.414;2023-05-29T04:22:14;34.78;;;12.18;;
68192;SDS011;55012;47.562;18.414;2023-05-29T04:24:40;39.03;;;12.75;;
68192;SDS011;55012;47.562;18.414;2023-05-29T04:27:06;37.58;;;12.70;;
68192;SDS011;55012;47.562;18.414;2023-05-29T04:29:34;24.92;;;9.85;;
68192;SDS011;55012;47.562;18.414;2023-05-29T04:31:59;28.45;;;10.57;;
68192;SDS011;55012;47.562;18.414;2023-05-29T04:34:28;17.15;;;8.55;;
68192;SDS011;55012;47.562;18.414;2023-05-29T04:36:57;19.52;;;9.00;;
68192;SDS011;55012;47.562;18.414;2023-05-29T04:39:23;25.25;;;10.07;;
68192;SDS011;55012;47.562;18.414;2023-05-29T04:41:49;24.38;;;9.90;;
68192;SDS011;55012;47.562;18.414;2023-05-29T04:44:16;21.35;;;9.55;;
68192;SDS011;55012;47.562;18.414;2023-05-29T04:46:42;18.48;;;9.07;;
68192;SDS011;55012;47.562;18.414;2023-05-29T04:49:09;20.27;;;9.20;;
68192;SDS011;55012;47.562;18.414;2023-05-29T04:51:35;20.80;;;9.65;;
68192;SDS011;55012;47.562;18.414;2023-05-29T04:54:01;27.95;;;10.30;;
68192;SDS011;55012;47.562;18.414;2023-05-29T04:56:27;24.95;;;10.43;;
68192;SDS011;55012;47.562;18.414;2023-05-29T04:58:53;24.25;;;10.40;;
68192;SDS011;55012;47.562;18.414;2023-05-29T05:01:19;25.13;;;9.77;;
68192;SDS011;55012;47.562;18.414;2023-05-29T05:03:44;25.38;;;8.82;;
68192;SDS011;55012;47.562;18.414;2023-05-29T05:06:10;29.55;;;10.45;;
68192;SDS011;55012;47.562;18.414;2023-05-29T05:08:37;23.60;;;9.07;;
68192;SDS011;55012;47.562;18.414;2023-05-29T05:11:03;25.73;;;9.88;;
68192;SDS011;55012;47.562;18.414;2023-05-29T05:13:29;22.83;;;9.68;;
68192;SDS011;55012;47.562;18.414;2023-05-29T05:15:54;22.90;;;10.20;;
68192;SDS011;55012;47.562;18.414;2023-05-29T05:18:20;21.30;;;9.68;;
68192;SDS011;55012;47.562;18.414;2023-05-29T05:20:46;20.73;;;9.13;;
68192;SDS011;55012;47.562;18.414;2023-05-29T05:23:11;28.08;;;12.70;;
68192;SDS011;55012;47.562;18.414;2023-05-29T05:25:37;17.52;;;8.20;;
68192;SDS011;55012;47.562;18.414;2023-05-29T05:28:03;17.92;;;8.80;;
68192;SDS011;55012;47.562;18.414;2023-05-29T05:30:30;19.23;;;8.70;;
68192;SDS011;55012;47.562;18.414;2023-05-29T05:32:56;16.38;;;8.35;;
68192;SDS011;55012;47.562;18.414;2023-05-29T05:35:22;16.42;;;8.10;;
68192;SDS011;55012;47.562;18.414;2023-05-29T05:37:47;14.07;;;6.72;;
68192;SDS011;55012;47.562;18.414;2023-05-29T05:40:13;16.23;;;7.35;;
68192;SDS011;55012;47.562;18.414;2023-05-29T05:42:38;13.65;;;7.18;;
68192;SDS011;55012;47.562;18.414;2023-05-29T05:45:04;12.68;;;7.18;;
68192;SDS011;55012;47.562;18.414;2023-05-29T05:47:31;12.93;;;8.15;;
68192;SDS011;55012;47.562;18.414;2023-05-29T05:49:59;12.55;;;6.72;;
68192;SDS011;55012;47.562;18.414;2023-05-29T05:52:24;16.92;;;7.25;;
68192;SDS011;55012;47.562;18.414;2023-05-29T05:54:51;17.25;;;9.45;;
68192;SDS011;55012;47.562;18.414;2023-05-29T05:57:17;17.10;;;8.65;;
68192;SDS011;55012;47.562;18.414;2023-05-29T05:59:42;16.30;;;8.27;;
68192;SDS011;55012;47.562;18.414;2023-05-29T06:02:08;17.80;;;7.90;;
68192;SDS011;55012;47.562;18.414;2023-05-29T06:04:34;18.50;;;7.63;;
68192;SDS011;55012;47.562;18.414;2023-05-29T06:06:59;18.33;;;9.10;;
68192;SDS011;55012;47.562;18.414;2023-05-29T06:09:25;16.30;;;9.23;;
68192;SDS011;55012;47.562;18.414;2023-05-29T06:11:50;14.25;;;8.55;;
68192;SDS011;55012;47.562;18.414;2023-05-29T06:14:16;15.57;;;8.60;;
68192;SDS011;55012;47.562;18.414;2023-05-29T06:16:41;14.40;;;8.32;;
68192;SDS011;55012;47.562;18.414;2023-05-29T06:19:07;17.67;;;9.23;;
68192;SDS011;55012;47.562;18.414;2023-05-29T06:21:33;15.93;;;9.00;;
68192;SDS011;55012;47.562;18.414;2023-05-29T06:23:59;18.73;;;8.40;;
68192;SDS011;55012;47.562;18.414;2023-05-29T06:26:25;14.07;;;8.68;;
68192;SDS011;55012;47.562;18.414;2023-05-29T06:28:51;17.38;;;9.10;;
68192;SDS011;55012;47.562;18.414;2023-05-29T06:31:17;14.82;;;8.57;;
68192;SDS011;55012;47.562;18.414;2023-05-29T06:33:43;21.08;;;9.75;;
68192;SDS011;55012;47.562;18.414;2023-05-29T06:36:09;15.73;;;8.15;;
68192;SDS011;55012;47.562;18.414;2023-05-29T06:38:35;17.15;;;9.25;;
68192;SDS011;55012;47.562;18.414;2023-05-29T06:41:01;17.65;;;8.98;;
68192;SDS011;55012;47.562;18.414;2023-05-29T06:43:27;16.67;;;9.50;;
68192;SDS011;55012;47.562;18.414;2023-05-29T06:45:53;17.77;;;8.88;;
68192;SDS011;55012;47.562;18.414;2023-05-29T06:48:18;16.48;;;9.70;;
68192;SDS011;55012;47.562;18.414;2023-05-29T06:50:45;15.95;;;9.00;;
68192;SDS011;55012;47.562;18.414;2023-05-29T06:53:10;20.63;;;9.35;;
68192;SDS011;55012;47.562;18.414;2023-05-29T06:55:36;14.68;;;9.05;;
68192;SDS011;55012;47.562;18.414;2023-05-29T06:58:01;18.70;;;9.02;;
68192;SDS011;55012;47.562;18.414;2023-05-29T07:00:27;13.27;;;7.95;;
68192;SDS011;55012;47.562;18.414;2023-05-29T07:02:53;15.63;;;9.05;;
68192;SDS011;55012;47.562;18.414;2023-05-29T07:05:19;16.25;;;9.07;;
68192;SDS011;55012;47.562;18.414;2023-05-29T07:07:44;19.02;;;8.98;;
68192;SDS011;55012;47.562;18.414;2023-05-29T07:10:12;16.70;;;8.20;;
68192;SDS011;55012;47.562;18.414;2023-05-29T07:12:38;16.27;;;9.50;;
68192;SDS011;55012;47.562;18.414;2023-05-29T07:15:03;15.45;;;8.75;;
68192;SDS011;55012;47.562;18.414;2023-05-29T07:17:29;14.25;;;8.65;;
68192;SDS011;55012;47.562;18.414;2023-05-29T07:19:54;17.48;;;8.90;;
68192;SDS011;55012;47.562;18.414;2023-05-29T07:22:20;21.23;;;11.45;;
68192;SDS011;55012;47.562;18.414;2023-05-29T07:24:46;16.67;;;8.75;;
68192;SDS011;55012;47.562;18.414;2023-05-29T07:27:11;15.45;;;8.50;;
68192;SDS011;55012;47.562;18.414;2023-05-29T07:29:37;13.43;;;7.80;;
68192;SDS011;55012;47.562;18.414;2023-05-29T07:32:02;14.60;;;8.00;;
68192;SDS011;55012;47.562;18.414;2023-05-29T07:34:28;15.38;;;8.27;;
68192;SDS011;55012;47.562;18.414;2023-05-29T07:39:25;12.43;;;7.80;;
68192;SDS011;55012;47.562;18.414;2023-05-29T07:41:51;11.80;;;7.05;;
68192;SDS011;55012;47.562;18.414;2023-05-29T07:44:17;13.45;;;8.15;;
68192;SDS011;55012;47.562;18.414;2023-05-29T07:46:43;14.60;;;6.80;;
68192;SDS011;55012;47.562;18.414;2023-05-29T07:49:08;12.55;;;7.18;;
68192;SDS011;55012;47.562;18.414;2023-05-29T07:51:34;11.15;;;7.70;;
68192;SDS011;55012;47.562;18.414;2023-05-29T07:53:59;22.48;;;13.25;;
68192;SDS011;55012;47.562;18.414;2023-05-29T07:56:25;13.27;;;6.80;;
68192;SDS011;55012;47.562;18.414;2023-05-29T07:58:50;12.20;;;6.35;;
68192;SDS011;55012;47.562;18.414;2023-05-29T08:01:18;11.20;;;6.50;;
68192;SDS011;55012;47.562;18.414;2023-05-29T08:03:44;9.00;;;6.40;;
68192;SDS011;55012;47.562;18.414;2023-05-29T08:06:10;11.20;;;6.07;;
68192;SDS011;55012;47.562;18.414;2023-05-29T08:08:36;12.32;;;6.15;;
68192;SDS011;55012;47.562;18.414;2023-05-29T08:11:01;12.70;;;7.28;;
68192;SDS011;55012;47.562;18.414;2023-05-29T08:13:29;11.13;;;6.60;;
68192;SDS011;55012;47.562;18.414;2023-05-29T08:15:55;12.82;;;7.53;;
68192;SDS011;55012;47.562;18.414;2023-05-29T08:18:20;21.42;;;13.90;;
68192;SDS011;55012;47.562;18.414;2023-05-29T08:20:46;10.07;;;6.13;;
68192;SDS011;55012;47.562;18.414;2023-05-29T08:23:12;14.55;;;7.18;;
68192;SDS011;55012;47.562;18.414;2023-05-29T08:25:37;12.85;;;7.00;;
68192;SDS011;55012;47.562;18.414;2023-05-29T08:28:03;10.15;;;6.40;;
68192;SDS011;55012;47.562;18.414;2023-05-29T08:30:28;12.77;;;6.30;;
68192;SDS011;55012;47.562;18.414;2023-05-29T08:32:54;9.30;;;6.15;;
68192;SDS011;55012;47.562;18.414;2023-05-29T08:35:19;11.65;;;6.45;;
68192;SDS011;55012;47.562;18.414;2023-05-29T08:37:45;11.80;;;6.75;;
68192;SDS011;55012;47.562;18.414;2023-05-29T08:40:11;8.80;;;5.93;;
68192;SDS011;55012;47.562;18.414;2023-05-29T08:42:40;10.80;;;7.22;;
68192;SDS011;55012;47.562;18.414;2023-05-29T08:45:16;11.23;;;7.07;;
68192;SDS011;55012;47.562;18.414;2023-05-29T08:47:43;10.85;;;6.78;;
68192;SDS011;55012;47.562;18.414;2023-05-29T08:50:13;16.05;;;6.85;;
68192;SDS011;55012;47.562;18.414;2023-05-29T08:52:41;11.35;;;6.43;;
68192;SDS011;55012;47.562;18.414;2023-05-29T08:55:07;9.70;;;5.45;;
68192;SDS011;55012;47.562;18.414;2023-05-29T08:57:33;7.82;;;5.20;;
68192;SDS011;55012;47.562;18.414;2023-05-29T09:00:01;11.77;;;6.88;;
68192;SDS011;55012;47.562;18.414;2023-05-29T09:02:33;12.35;;;6.53;;
68192;SDS011;55012;47.562;18.414;2023-05-29T09:05:00;12.00;;;7.53;;
68192;SDS011;55012;47.562;18.414;2023-05-29T09:07:25;10.70;;;6.25;;
68192;SDS011;55012;47.562;18.414;2023-05-29T09:09:51;14.18;;;5.53;;
68192;SDS011;55012;47.562;18.414;2023-05-29T09:12:17;8.68;;;5.50;;
68192;SDS011;55012;47.562;18.414;2023-05-29T09:14:42;8.13;;;6.00;;
68192;SDS011;55012;47.562;18.414;2023-05-29T09:17:10;9.18;;;5.15;;
68192;SDS011;55012;47.562;18.414;2023-05-29T09:19:36;7.70;;;5.45;;
68192;SDS011;55012;47.562;18.414;2023-05-29T09:22:04;8.95;;;5.47;;
68192;SDS011;55012;47.562;18.414;2023-05-29T09:24:34;8.65;;;5.70;;
68192;SDS011;55012;47.562;18.414;2023-05-29T09:27:01;9.70;;;5.65;;
68192;SDS011;55012;47.562;18.414;2023-05-29T09:29:33;9.05;;;5.65;;
68192;SDS011;55012;47.562;18.414;2023-05-29T09:32:05;7.57;;;5.32;;
68192;SDS011;55012;47.562;18.414;2023-05-29T09:34:32;9.55;;;5.65;;
68192;SDS011;55012;47.562;18.414;2023-05-29T09:37:05;9.23;;;5.68;;
68192;SDS011;55012;47.562;18.414;2023-05-29T09:42:06;7.72;;;5.25;;
68192;SDS011;55012;47.562;18.414;2023-05-29T09:44:32;9.00;;;5.35;;
68192;SDS011;55012;47.562;18.414;2023-05-29T09:46:58;10.90;;;6.25;;
68192;SDS011;55012;47.562;18.414;2023-05-29T09:49:25;8.68;;;5.60;;
68192;SDS011;55012;47.562;18.414;2023-05-29T09:51:53;8.27;;;5.60;;
68192;SDS011;55012;47.562;18.414;2023-05-29T09:54:19;8.48;;;5.43;;
68192;SDS011;55012;47.562;18.414;2023-05-29T09:56:45;9.50;;;5.50;;
68192;SDS011;55012;47.562;18.414;2023-05-29T09:59:12;8.52;;;5.53;;
68192;SDS011;55012;47.562;18.414;2023-05-29T10:01:42;8.82;;;5.40;;
68192;SDS011;55012;47.562;18.414;2023-05-29T10:04:11;7.43;;;5.72;;
68192;SDS011;55012;47.562;18.414;2023-05-29T10:06:38;9.63;;;5.40;;
68192;SDS011;55012;47.562;18.414;2023-05-29T10:09:09;10.55;;;5.47;;
68192;SDS011;55012;47.562;18.414;2023-05-29T10:11:37;9.20;;;5.47;;
68192;SDS011;55012;47.562;18.414;2023-05-29T10:14:06;8.38;;;6.03;;
68192;SDS011;55012;47.562;18.414;2023-05-29T10:16:34;7.85;;;5.57;;
68192;SDS011;55012;47.562;18.414;2023-05-29T10:19:06;8.10;;;5.70;;
68192;SDS011;55012;47.562;18.414;2023-05-29T10:21:37;8.15;;;5.40;;
68192;SDS011;55012;47.562;18.414;2023-05-29T10:24:06;9.65;;;6.20;;
68192;SDS011;55012;47.562;18.414;2023-05-29T10:26:34;9.55;;;5.88;;
68192;SDS011;55012;47.562;18.414;2023-05-29T10:34:25;8.07;;;5.88;;
68192;SDS011;55012;47.562;18.414;2023-05-29T10:37:18;9.73;;;5.75;;
68192;SDS011;55012;47.562;18.414;2023-05-29T10:39:50;8.68;;;5.70;;
68192;SDS011;55012;47.562;18.414;2023-05-29T10:48:35;8.57;;;5.70;;
68192;SDS011;55012;47.562;18.414;2023-05-29T10:50:43;8.77;;;5.60;;
68192;SDS011;55012;47.562;18.414;2023-05-29T10:53:10;10.43;;;5.95;;
68192;SDS011;55012;47.562;18.414;2023-05-29T10:55:40;9.45;;;6.30;;
68192;SDS011;55012;47.562;18.414;2023-05-29T10:58:10;8.35;;;5.93;;
68192;SDS011;55012;47.562;18.414;2023-05-29T11:00:41;9.00;;;6.38;;
68192;SDS011;55012;47.562;18.414;2023-05-29T11:03:07;9.93;;;5.95;;
68192;SDS011;55012;47.562;18.414;2023-05-29T11:05:34;10.80;;;6.03;;
68192;SDS011;55012;47.562;18.414;2023-05-29T11:08:00;13.25;;;6.22;;
68192;SDS011;55012;47.562;18.414;2023-05-29T11:10:44;8.90;;;6.28;;
68192;SDS011;55012;47.562;18.414;2023-05-29T11:13:10;13.32;;;6.00;;
68192;SDS011;55012;47.562;18.414;2023-05-29T11:16:03;14.63;;;6.68;;
68192;SDS011;55012;47.562;18.414;2023-05-29T11:18:29;9.15;;;6.38;;
68192;SDS011;55012;47.562;18.414;2023-05-29T11:20:57;9.40;;;5.95;;
68192;SDS011;55012;47.562;18.414;2023-05-29T11:23:27;17.38;;;11.77;;
68192;SDS011;55012;47.562;18.414;2023-05-29T11:25:56;8.98;;;5.55;;
68192;SDS011;55012;47.562;18.414;2023-05-29T11:28:24;11.40;;;6.40;;
68192;SDS011;55012;47.562;18.414;2023-05-29T11:30:49;10.20;;;6.15;;
68192;SDS011;55012;47.562;18.414;2023-05-29T11:33:25;10.43;;;5.95;;
68192;SDS011;55012;47.562;18.414;2023-05-29T11:35:54;10.38;;;5.97;;
68192;SDS011;55012;47.562;18.414;2023-05-29T11:38:24;8.63;;;5.93;;
68192;SDS011;55012;47.562;18.414;2023-05-29T11:40:54;10.82;;;5.63;;
68192;SDS011;55012;47.562;18.414;2023-05-29T11:43:20;8.45;;;5.65;;
68192;SDS011;55012;47.562;18.414;2023-05-29T11:45:46;7.88;;;5.85;;
68192;SDS011;55012;47.562;18.414;2023-05-29T11:48:11;7.93;;;5.68;;
68192;SDS011;55012;47.562;18.414;2023-05-29T11:50:37;12.25;;;5.78;;
68192;SDS011;55012;47.562;18.414;2023-05-29T11:53:05;8.90;;;6.13;;
68192;SDS011;55012;47.562;18.414;2023-05-29T11:55:32;8.68;;;5.47;;
68192;SDS011;55012;47.562;18.414;2023-05-29T11:57:59;9.13;;;6.03;;
68192;SDS011;55012;47.562;18.414;2023-05-29T12:00:28;7.30;;;5.35;;
68192;SDS011;55012;47.562;18.414;2023-05-29T12:02:57;8.15;;;5.50;;
68192;SDS011;55012;47.562;18.414;2023-05-29T12:05:23;9.00;;;5.60;;
68192;SDS011;55012;47.562;18.414;2023-05-29T12:07:53;11.25;;;5.70;;
68192;SDS011;55012;47.562;18.414;2023-05-29T12:10:21;9.88;;;5.28;;
68192;SDS011;55012;47.562;18.414;2023-05-29T12:12:51;12.55;;;8.38;;
68192;SDS011;55012;47.562;18.414;2023-05-29T12:15:24;8.48;;;5.80;;
68192;SDS011;55012;47.562;18.414;2023-05-29T12:17:50;11.18;;;6.38;;
68192;SDS011;55012;47.562;18.414;2023-05-29T12:20:17;9.45;;;6.35;;
68192;SDS011;55012;47.562;18.414;2023-05-29T12:22:44;9.15;;;6.40;;
68192;SDS011;55012;47.562;18.414;2023-05-29T12:25:11;10.57;;;6.32;;
68192;SDS011;55012;47.562;18.414;2023-05-29T12:27:42;9.27;;;6.28;;
68192;SDS011;55012;47.562;18.414;2023-05-29T12:30:19;9.23;;;6.00;;
68192;SDS011;55012;47.562;18.414;2023-05-29T12:32:49;8.73;;;5.75;;
68192;SDS011;55012;47.562;18.414;2023-05-29T12:40:25;10.98;;;6.30;;
68192;SDS011;55012;47.562;18.414;2023-05-29T12:42:55;9.45;;;6.75;;
68192;SDS011;55012;47.562;18.414;2023-05-29T12:45:29;9.90;;;6.50;;
68192;SDS011;55012;47.562;18.414;2023-05-29T12:47:56;11.85;;;6.63;;
68192;SDS011;55012;47.562;18.414;2023-05-29T12:50:24;9.27;;;6.40;;
68192;SDS011;55012;47.562;18.414;2023-05-29T12:52:54;11.70;;;5.97;;
68192;SDS011;55012;47.562;18.414;2023-05-29T12:55:23;10.30;;;6.25;;
68192;SDS011;55012;47.562;18.414;2023-05-29T12:57:49;9.27;;;6.22;;
68192;SDS011;55012;47.562;18.414;2023-05-29T13:00:15;10.10;;;6.45;;
68192;SDS011;55012;47.562;18.414;2023-05-29T13:02:40;9.65;;;5.90;;
68192;SDS011;55012;47.562;18.414;2023-05-29T13:05:06;11.30;;;6.55;;
68192;SDS011;55012;47.562;18.414;2023-05-29T13:07:32;8.93;;;6.00;;
68192;SDS011;55012;47.562;18.414;2023-05-29T13:09:59;12.63;;;7.13;;
68192;SDS011;55012;47.562;18.414;2023-05-29T13:12:25;8.98;;;6.28;;
68192;SDS011;55012;47.562;18.414;2023-05-29T13:14:50;10.85;;;6.60;;
68192;SDS011;55012;47.562;18.414;2023-05-29T13:17:16;9.50;;;5.93;;
68192;SDS011;55012;47.562;18.414;2023-05-29T13:19:42;8.25;;;6.35;;
68192;SDS011;55012;47.562;18.414;2023-05-29T13:22:08;8.18;;;6.60;;
68192;SDS011;55012;47.562;18.414;2023-05-29T13:24:33;8.13;;;6.32;;
68192;SDS011;55012;47.562;18.414;2023-05-29T13:26:59;9.23;;;6.13;;
68192;SDS011;55012;47.562;18.414;2023-05-29T13:29:26;10.13;;;5.68;;
68192;SDS011;55012;47.562;18.414;2023-05-29T13:31:51;8.38;;;5.82;;
68192;SDS011;55012;47.562;18.414;2023-05-29T13:34:17;7.75;;;5.60;;
68192;SDS011;55012;47.562;18.414;2023-05-29T13:36:42;6.85;;;5.47;;
68192;SDS011;55012;47.562;18.414;2023-05-29T13:39:09;7.70;;;5.43;;
68192;SDS011;55012;47.562;18.414;2023-05-29T13:41:35;7.38;;;6.00;;
68192;SDS011;55012;47.562;18.414;2023-05-29T13:44:01;7.05;;;5.25;;
68192;SDS011;55012;47.562;18.414;2023-05-29T13:46:27;9.10;;;6.07;;
68192;SDS011;55012;47.562;18.414;2023-05-29T13:48:52;7.82;;;5.88;;
68192;SDS011;55012;47.562;18.414;2023-05-29T13:51:18;7.95;;;5.90;;
68192;SDS011;55012;47.562;18.414;2023-05-29T13:53:43;7.35;;;5.45;;
68192;SDS011;55012;47.562;18.414;2023-05-29T13:56:08;12.55;;;5.80;;
68192;SDS011;55012;47.562;18.414;2023-05-29T13:58:34;10.25;;;5.85;;
68192;SDS011;55012;47.562;18.414;2023-05-29T14:00:59;9.73;;;5.68;;
68192;SDS011;55012;47.562;18.414;2023-05-29T14:03:25;9.63;;;5.63;;
68192;SDS011;55012;47.562;18.414;2023-05-29T14:05:53;9.07;;;5.43;;
68192;SDS011;55012;47.562;18.414;2023-05-29T14:08:19;9.10;;;5.50;;
68192;SDS011;55012;47.562;18.414;2023-05-29T14:10:45;6.72;;;5.50;;
68192;SDS011;55012;47.562;18.414;2023-05-29T14:13:12;7.65;;;5.20;;
68192;SDS011;55012;47.562;18.414;2023-05-29T14:15:37;10.68;;;5.88;;
68192;SDS011;55012;47.562;18.414;2023-05-29T14:18:03;11.48;;;6.03;;
68192;SDS011;55012;47.562;18.414;2023-05-29T14:20:28;11.68;;;6.20;;
68192;SDS011;55012;47.562;18.414;2023-05-29T14:22:54;7.18;;;5.82;;
68192;SDS011;55012;47.562;18.414;2023-05-29T14:25:20;7.40;;;5.55;;
68192;SDS011;55012;47.562;18.414;2023-05-29T14:27:45;7.88;;;5.45;;
68192;SDS011;55012;47.562;18.414;2023-05-29T14:30:11;8.43;;;5.85;;
68192;SDS011;55012;47.562;18.414;2023-05-29T14:32:36;7.80;;;5.70;;
68192;SDS011;55012;47.562;18.414;2023-05-29T14:35:02;7.75;;;5.70;;
68192;SDS011;55012;47.562;18.414;2023-05-29T14:37:27;8.43;;;5.25;;
68192;SDS011;55012;47.562;18.414;2023-05-29T14:39:53;7.95;;;5.80;;
68192;SDS011;55012;47.562;18.414;2023-05-29T14:42:18;7.65;;;5.47;;
68192;SDS011;55012;47.562;18.414;2023-05-29T14:44:44;8.35;;;5.55;;
68192;SDS011;55012;47.562;18.414;2023-05-29T14:47:09;7.85;;;5.10;;
68192;SDS011;55012;47.562;18.414;2023-05-29T14:49:35;7.97;;;5.78;;
68192;SDS011;55012;47.562;18.414;2023-05-29T14:52:02;7.32;;;5.43;;
68192;SDS011;55012;47.562;18.414;2023-05-29T14:54:29;7.47;;;6.10;;
68192;SDS011;55012;47.562;18.414;2023-05-29T14:56:55;8.13;;;5.82;;